Flong, Denmark
Current Conditions -  °F | °C
As of 7:50 PM on Sunday 23 Nov 2014 (Local Time) from EKRK Reporting Station
Few Clouds Few Clouds  
Wind Chill: 36°   Ceiling: Unl
Heat Index: 45°   Visibility: 3mi
Dew Point: 43°   Wind: 21mph
Humidity: 93%   Direction: 140°SE
Pressure: 30.06"   Gusts: NA
Location:  55.66°N, 12.19°E
Report Text: EKRK 231850Z AUTO 14018KT 5000NDV FEW110/// 07/06 Q1018
Loading
Personal Weather Stations






























Interactive Weather Map New forecast layout! Learn more

10-Day Weather Forecast

Advertisements
Track Severe Weather on mobile